createdAt,value
2018-12-02T00:01:43.847Z,15.43
2018-12-02T00:04:15.212Z,17.17
2018-12-02T00:06:45.415Z,14.40
2018-12-02T00:09:15.468Z,15.67
2018-12-02T00:11:47.348Z,14.87
2018-12-02T00:14:17.587Z,14.00
2018-12-02T00:16:47.871Z,15.30
2018-12-02T00:19:18.022Z,15.40
2018-12-02T00:21:48.223Z,14.63
2018-12-02T00:24:18.449Z,15.87
2018-12-02T00:26:48.587Z,14.47
2018-12-02T00:29:19.569Z,16.40
2018-12-02T00:31:50.520Z,13.73
2018-12-02T00:34:20.943Z,13.63
2018-12-02T00:36:53.213Z,14.70
2018-12-02T00:39:23.444Z,14.17
2018-12-02T00:41:53.682Z,13.53
2018-12-02T00:44:24.154Z,13.47
2018-12-02T00:46:54.566Z,13.87
2018-12-02T00:49:24.910Z,15.07
2018-12-02T00:51:55.578Z,12.17
2018-12-02T00:54:25.876Z,13.43
2018-12-02T00:56:56.288Z,12.23
2018-12-02T00:59:27.280Z,11.03
2018-12-02T01:01:58.010Z,12.10
2018-12-02T01:04:28.920Z,12.60
2018-12-02T01:06:59.284Z,11.50
2018-12-02T01:09:29.779Z,12.00
2018-12-02T01:12:00.012Z,10.33
2018-12-02T01:14:31.019Z,10.47
2018-12-02T01:17:02.050Z,10.87
2018-12-02T01:19:33.392Z,11.87
2018-12-02T01:22:04.445Z,9.67
2018-12-02T01:24:35.827Z,11.73
2018-12-02T01:27:06.168Z,10.53
2018-12-02T01:29:36.969Z,11.07
2018-12-02T01:32:07.323Z,11.37
2018-12-02T01:34:37.667Z,11.10
2018-12-02T01:37:08.317Z,11.03
2018-12-02T01:39:38.417Z,10.53
2018-12-02T01:42:08.609Z,10.20
2018-12-02T01:44:38.989Z,11.60
2018-12-02T01:47:09.906Z,9.67
2018-12-02T01:49:40.423Z,8.97
2018-12-02T01:52:10.923Z,10.20
2018-12-02T01:54:41.039Z,9.20
2018-12-02T01:57:12.112Z,8.80
2018-12-02T01:59:42.470Z,7.10
2018-12-02T02:02:12.634Z,6.87
2018-12-02T02:04:43.419Z,6.77
2018-12-02T02:07:13.433Z,7.17
2018-12-02T02:09:43.565Z,6.93
2018-12-02T02:12:13.502Z,6.20
2018-12-02T02:14:43.492Z,6.53
2018-12-02T02:17:14.031Z,6.60
2018-12-02T02:19:44.294Z,7.70
2018-12-02T02:22:14.526Z,6.10
2018-12-02T02:24:45.118Z,5.63
2018-12-02T02:27:15.135Z,6.70
2018-12-02T02:29:45.600Z,6.23
2018-12-02T02:32:15.615Z,8.47
2018-12-02T02:34:45.838Z,6.63
2018-12-02T02:37:16.582Z,8.63
2018-12-02T02:39:46.915Z,5.80
2018-12-02T02:42:17.987Z,7.07
2018-12-02T02:44:48.163Z,7.03
2018-12-02T02:47:18.310Z,6.00
2018-12-02T02:49:49.290Z,6.53
2018-12-02T02:52:19.746Z,7.07
2018-12-02T02:54:50.438Z,5.93
2018-12-02T02:57:21.029Z,6.87
2018-12-02T02:59:51.305Z,6.00
2018-12-02T03:02:21.626Z,6.57
2018-12-02T03:04:52.523Z,5.70
2018-12-02T03:07:22.969Z,5.10
2018-12-02T03:09:53.936Z,4.90
2018-12-02T03:12:24.213Z,5.10
2018-12-02T03:14:54.327Z,5.17
2018-12-02T03:17:24.813Z,5.23
2018-12-02T03:19:55.243Z,4.90
2018-12-02T03:22:25.454Z,5.20
2018-12-02T03:24:55.689Z,5.77
2018-12-02T03:27:26.706Z,5.50
2018-12-02T03:29:57.321Z,5.47
2018-12-02T03:32:27.583Z,5.70
2018-12-02T03:34:57.591Z,5.60
2018-12-02T03:37:27.785Z,5.27
2018-12-02T03:39:58.067Z,5.80
2018-12-02T03:42:28.366Z,5.70
2018-12-02T03:44:59.151Z,5.47
2018-12-02T03:47:29.297Z,5.80
2018-12-02T03:49:59.579Z,5.60
2018-12-02T03:52:29.932Z,5.57
2018-12-02T03:54:59.999Z,5.80
2018-12-02T03:57:30.085Z,5.60
2018-12-02T04:00:00.357Z,5.53
2018-12-02T04:02:30.767Z,5.97
2018-12-02T04:05:02.156Z,5.83
2018-12-02T04:07:32.447Z,5.57
2018-12-02T04:10:02.979Z,5.93
2018-12-02T04:12:34.442Z,5.90
2018-12-02T04:15:05.658Z,5.93
2018-12-02T04:17:36.041Z,6.00
2018-12-02T04:20:07.831Z,5.63
2018-12-02T04:22:38.252Z,5.37
2018-12-02T04:25:11.228Z,4.60
2018-12-02T04:27:42.066Z,4.07
2018-12-02T04:30:16.653Z,4.30
2018-12-02T04:32:47.529Z,4.20
2018-12-02T04:35:19.705Z,4.53
2018-12-02T04:37:50.473Z,4.53
2018-12-02T04:40:20.891Z,4.40
2018-12-02T04:42:51.673Z,4.63
2018-12-02T04:45:22.411Z,4.37
2018-12-02T04:47:52.628Z,4.70
2018-12-02T04:50:24.944Z,4.30
2018-12-02T04:52:55.192Z,4.07
2018-12-02T04:55:25.598Z,3.90
2018-12-02T04:57:56.419Z,3.87
2018-12-02T05:00:27.182Z,3.90
2018-12-02T05:02:57.575Z,4.53
2018-12-02T05:05:28.486Z,4.03
2018-12-02T05:07:58.913Z,4.20
2018-12-02T05:10:31.176Z,4.33
2018-12-02T05:13:03.182Z,4.57
2018-12-02T05:15:33.832Z,4.47
2018-12-02T05:18:04.151Z,4.83
2018-12-02T05:20:34.804Z,5.60
2018-12-02T05:23:05.270Z,5.23
2018-12-02T05:25:37.424Z,5.10
2018-12-02T05:28:07.827Z,5.10
2018-12-02T05:30:38.137Z,4.97
2018-12-02T05:33:08.373Z,5.10
2018-12-02T05:35:38.648Z,5.07
2018-12-02T05:38:08.745Z,5.37
2018-12-02T05:40:39.012Z,5.07
2018-12-02T05:43:09.475Z,5.00
2018-12-02T05:45:40.791Z,5.20
2018-12-02T05:48:11.419Z,5.30
2018-12-02T05:50:42.954Z,4.90
2018-12-02T05:53:13.503Z,4.97
2018-12-02T05:55:44.521Z,4.90
2018-12-02T05:58:14.741Z,5.13
2018-12-02T06:00:45.277Z,5.00
2018-12-02T06:03:16.720Z,5.40
2018-12-02T06:05:46.827Z,5.40
2018-12-02T06:08:17.743Z,5.60
2018-12-02T06:10:49.989Z,6.10
2018-12-02T06:13:20.943Z,5.77
2018-12-02T06:15:51.567Z,5.73
2018-12-02T06:18:21.798Z,5.83
2018-12-02T06:20:55.094Z,6.07
2018-12-02T06:23:25.123Z,6.20
2018-12-02T06:25:55.379Z,7.03
2018-12-02T06:28:26.091Z,6.93
2018-12-02T06:30:56.526Z,6.90
2018-12-02T06:33:26.865Z,7.33
2018-12-02T06:35:57.315Z,7.37
2018-12-02T06:38:27.527Z,11.23
2018-12-02T06:40:58.364Z,9.47
2018-12-02T06:43:28.648Z,8.37
2018-12-02T06:45:59.521Z,9.73
2018-12-02T06:48:29.755Z,9.07
2018-12-02T06:51:00.258Z,14.13
2018-12-02T06:53:30.578Z,8.67
2018-12-02T06:56:08.389Z,9.17
2018-12-02T06:58:45.594Z,8.17
2018-12-02T07:03:57.868Z,7.43
2018-12-02T07:06:28.147Z,8.63
2018-12-02T07:08:58.348Z,7.20
2018-12-02T07:11:29.604Z,6.90
2018-12-02T07:14:00.392Z,7.17
2018-12-02T07:16:30.823Z,6.40
2018-12-02T07:19:03.270Z,6.00
2018-12-02T07:21:34.688Z,6.40
2018-12-02T07:24:09.396Z,5.57
2018-12-02T07:26:43.306Z,6.40
2018-12-02T07:29:14.672Z,5.23
2018-12-02T07:31:45.097Z,5.47
2018-12-02T07:34:32.373Z,5.10
2018-12-02T07:37:24.406Z,5.20
2018-12-02T07:40:11.324Z,4.73
2018-12-02T07:42:41.777Z,5.10
2018-12-02T07:45:12.084Z,4.27
2018-12-02T07:47:42.254Z,4.43
2018-12-02T07:50:14.034Z,4.50
2018-12-02T07:52:44.953Z,4.33
2018-12-02T07:55:16.372Z,4.00
2018-12-02T07:57:48.699Z,4.13
2018-12-02T08:00:19.262Z,3.67
2018-12-02T08:02:50.643Z,3.47
2018-12-02T08:05:21.379Z,3.50
2018-12-02T08:07:53.183Z,7.80
2018-12-02T08:10:23.682Z,3.73
2018-12-02T08:12:55.773Z,5.17
2018-12-02T08:15:26.255Z,3.83
2018-12-02T08:17:56.511Z,3.53
2018-12-02T08:20:28.033Z,3.80
2018-12-02T08:22:59.692Z,3.50
2018-12-02T08:25:31.074Z,5.73
2018-12-02T08:28:01.719Z,3.80
2018-12-02T08:30:37.738Z,4.10
2018-12-02T08:33:08.854Z,16.57
2018-12-02T08:35:38.797Z,4.10
2018-12-02T08:38:10.691Z,3.67
2018-12-02T08:40:41.088Z,4.50
2018-12-02T08:43:12.596Z,3.80
2018-12-02T08:45:43.562Z,3.40
2018-12-02T08:48:14.179Z,3.30
2018-12-02T08:50:45.104Z,3.13
2018-12-02T08:53:15.419Z,2.87
2018-12-02T08:55:46.372Z,2.80
2018-12-02T08:58:17.896Z,2.90
2018-12-02T09:00:48.524Z,2.77
2018-12-02T09:03:19.266Z,2.70
2018-12-02T09:05:49.895Z,3.43
2018-12-02T09:08:20.383Z,2.63
2018-12-02T09:10:50.976Z,2.80
2018-12-02T09:13:22.654Z,2.70
2018-12-02T09:15:53.015Z,2.57
2018-12-02T09:18:24.157Z,2.70
2018-12-02T09:20:55.237Z,2.60
2018-12-02T09:23:26.986Z,2.50
2018-12-02T09:25:57.528Z,2.80
2018-12-02T09:28:28.219Z,2.30
2018-12-02T09:30:58.579Z,2.17
2018-12-02T09:33:29.287Z,2.40
2018-12-02T09:35:59.816Z,2.43
2018-12-02T09:38:30.233Z,2.20
2018-12-02T09:41:00.687Z,2.90
2018-12-02T09:43:32.873Z,2.67
2018-12-02T09:46:03.229Z,2.60
2018-12-02T09:48:33.319Z,2.80
2018-12-02T09:51:03.646Z,2.57
2018-12-02T09:53:34.460Z,3.00
2018-12-02T09:56:05.837Z,3.13
2018-12-02T09:58:36.570Z,3.00
2018-12-02T10:01:08.368Z,2.60
2018-12-02T10:03:38.465Z,2.50
2018-12-02T10:06:09.011Z,2.73
2018-12-02T10:08:39.605Z,2.20
2018-12-02T10:11:10.742Z,2.63
2018-12-02T10:13:41.321Z,2.57
2018-12-02T10:16:15.693Z,2.80
2018-12-02T10:18:42.481Z,2.80
2018-12-02T10:21:12.784Z,2.43
2018-12-02T10:23:44.517Z,2.57
2018-12-02T10:26:14.692Z,2.60
2018-12-02T10:28:45.469Z,2.23
2018-12-02T10:31:16.538Z,2.20
2018-12-02T10:33:46.897Z,2.97
2018-12-02T10:36:17.783Z,2.40
2018-12-02T10:38:48.139Z,3.00
2018-12-02T10:41:18.489Z,2.37
2018-12-02T10:43:48.958Z,2.73
2018-12-02T10:46:19.411Z,2.60
2018-12-02T10:48:50.964Z,2.57
2018-12-02T10:51:21.445Z,2.17
2018-12-02T10:53:51.822Z,2.40
2018-12-02T10:56:22.152Z,2.47
2018-12-02T10:58:52.486Z,2.17
2018-12-02T11:01:27.128Z,2.10
2018-12-02T11:03:58.187Z,2.50
2018-12-02T11:06:28.558Z,2.87
2018-12-02T11:08:58.908Z,2.60
2018-12-02T11:11:29.520Z,2.30
2018-12-02T11:14:00.168Z,2.30
2018-12-02T11:16:30.370Z,3.03
2018-12-02T11:19:02.339Z,2.33
2018-12-02T11:21:32.282Z,2.80
2018-12-02T11:24:02.532Z,2.27
2018-12-02T11:26:33.932Z,2.53
2018-12-02T11:29:04.892Z,2.40
2018-12-02T11:31:35.284Z,2.00
2018-12-02T11:34:06.496Z,2.40
2018-12-02T11:36:36.909Z,1.93
2018-12-02T11:39:09.951Z,2.10
2018-12-02T11:41:40.883Z,2.27
2018-12-02T11:44:11.605Z,2.10
2018-12-02T11:46:42.946Z,2.27
2018-12-02T11:49:13.194Z,2.73
2018-12-02T11:51:43.658Z,2.40
2018-12-02T11:54:14.367Z,2.30
2018-12-02T11:56:44.799Z,2.40
2018-12-02T11:59:15.275Z,2.10
2018-12-02T12:01:46.087Z,1.70
2018-12-02T12:04:16.420Z,1.97
2018-12-02T12:06:46.904Z,1.63
2018-12-02T12:09:17.122Z,1.80
2018-12-02T12:11:47.503Z,1.50
2018-12-02T12:14:18.426Z,1.60
2018-12-02T12:16:49.050Z,1.53
2018-12-02T12:19:19.932Z,1.40
2018-12-02T12:21:50.252Z,1.70
2018-12-02T12:24:21.277Z,1.80
2018-12-02T12:26:52.499Z,1.80
2018-12-02T12:29:23.873Z,1.50
2018-12-02T12:31:55.615Z,1.60
2018-12-02T12:34:27.389Z,1.50
2018-12-02T12:36:57.639Z,1.70
2018-12-02T12:39:36.910Z,1.50
2018-12-02T12:42:07.807Z,2.93
2018-12-02T12:44:39.351Z,1.40
2018-12-02T12:47:10.507Z,1.33
2018-12-02T12:49:41.400Z,2.00
2018-12-02T12:52:12.407Z,1.70
2018-12-02T12:54:42.879Z,2.53
2018-12-02T12:57:13.283Z,2.33
2018-12-02T12:59:43.641Z,1.50
2018-12-02T13:02:14.622Z,1.40
2018-12-02T13:04:45.044Z,1.80
2018-12-02T13:07:15.948Z,1.50
2018-12-02T13:09:46.151Z,1.70
2018-12-02T13:12:16.290Z,2.13
2018-12-02T13:14:47.504Z,2.10
2018-12-02T13:17:17.986Z,2.57
2018-12-02T13:19:48.518Z,1.60
2018-12-02T13:22:18.513Z,1.70
2018-12-02T13:24:49.235Z,1.67
2018-12-02T13:27:20.399Z,1.60
2018-12-02T13:29:50.950Z,1.90
2018-12-02T13:32:21.554Z,1.90
2018-12-02T13:34:53.218Z,2.00
2018-12-02T13:37:23.607Z,1.83
2018-12-02T13:39:54.691Z,1.63
2018-12-02T13:42:25.419Z,1.20
2018-12-02T13:44:56.584Z,1.47
2018-12-02T13:47:27.119Z,1.07
2018-12-02T13:49:57.529Z,1.00
2018-12-02T13:52:28.835Z,1.60
2018-12-02T13:54:59.741Z,1.73
2018-12-02T13:57:43.164Z,1.40
2018-12-02T14:00:17.633Z,1.60
2018-12-02T14:02:50.203Z,2.00
2018-12-02T14:05:20.609Z,1.83
2018-12-02T14:07:51.258Z,1.80
2018-12-02T14:10:21.820Z,1.60
2018-12-02T14:13:02.329Z,1.40
2018-12-02T14:15:49.726Z,1.67
2018-12-02T14:18:33.447Z,1.70
2018-12-02T14:21:04.216Z,1.60
2018-12-02T14:23:34.421Z,1.70
2018-12-02T14:26:08.943Z,1.30
2018-12-02T14:30:53.647Z,1.20
2018-12-02T14:33:24.463Z,1.60
2018-12-02T14:35:56.010Z,1.60
2018-12-02T14:38:26.114Z,2.90
2018-12-02T14:40:56.549Z,2.50
2018-12-02T14:43:27.011Z,1.53
2018-12-02T14:45:57.530Z,1.80
2018-12-02T14:48:29.089Z,1.63
2018-12-02T14:51:00.043Z,1.50
2018-12-02T14:53:30.730Z,1.50
2018-12-02T14:56:01.688Z,1.30
2018-12-02T14:58:32.380Z,1.30
2018-12-02T15:01:02.559Z,1.20
2018-12-02T15:03:33.862Z,1.40
2018-12-02T15:06:04.035Z,1.30
2018-12-02T15:08:34.416Z,1.30
2018-12-02T15:11:05.807Z,1.10
2018-12-02T15:13:36.659Z,1.20
2018-12-02T15:16:07.265Z,1.20
2018-12-02T15:18:38.390Z,1.40
2018-12-02T15:21:08.794Z,1.70
2018-12-02T15:23:39.282Z,1.47
2018-12-02T15:26:09.833Z,1.40
2018-12-02T15:28:40.701Z,1.13
2018-12-02T15:31:11.067Z,1.17
2018-12-02T15:33:41.311Z,1.20
2018-12-02T15:36:12.803Z,1.27
2018-12-02T15:38:42.969Z,1.73
2018-12-02T15:41:13.513Z,1.70
2018-12-02T15:43:43.563Z,1.33
2018-12-02T15:46:13.805Z,1.40
2018-12-02T15:48:45.011Z,1.07
2018-12-02T15:51:15.233Z,1.40
2018-12-02T15:53:45.757Z,1.37
2018-12-02T15:56:16.170Z,1.40
2018-12-02T15:58:47.472Z,1.60
2018-12-02T16:01:18.020Z,1.53
2018-12-02T16:03:48.392Z,1.40
2018-12-02T16:06:19.251Z,1.20
2018-12-02T16:08:49.650Z,1.50
2018-12-02T16:11:19.898Z,1.40
2018-12-02T16:13:50.517Z,1.43
2018-12-02T16:16:20.643Z,1.10
2018-12-02T16:18:51.363Z,1.50
2018-12-02T16:21:22.235Z,2.30
2018-12-02T16:23:52.631Z,1.50
2018-12-02T16:26:22.800Z,1.10
2018-12-02T16:28:54.191Z,1.50
2018-12-02T16:31:24.620Z,1.17
2018-12-02T16:33:55.354Z,1.00
2018-12-02T16:36:26.058Z,1.40
2018-12-02T16:38:56.544Z,1.80
2018-12-02T16:41:26.873Z,1.20
2018-12-02T16:43:57.349Z,2.60
2018-12-02T16:46:27.796Z,2.27
2018-12-02T16:48:58.668Z,2.10
2018-12-02T16:51:28.908Z,1.53
2018-12-02T16:53:59.430Z,8.07
2018-12-02T16:56:30.418Z,1.60
2018-12-02T16:59:36.685Z,4.10
2018-12-02T17:02:09.788Z,2.43
2018-12-02T17:04:48.557Z,2.50
2018-12-02T17:07:19.337Z,3.03
2018-12-02T17:09:49.338Z,2.00
2018-12-02T17:12:19.897Z,2.10
2018-12-02T17:14:50.991Z,2.00
2018-12-02T17:17:21.367Z,2.53
2018-12-02T17:19:51.615Z,2.10
2018-12-02T17:22:21.775Z,1.97
2018-12-02T17:24:52.064Z,2.03
2018-12-02T17:27:22.665Z,2.10
2018-12-02T17:29:53.780Z,2.20
2018-12-02T17:32:24.501Z,2.00
2018-12-02T17:34:54.790Z,2.07
2018-12-02T17:37:25.353Z,2.10
2018-12-02T17:39:56.373Z,2.00
2018-12-02T17:42:26.644Z,2.10
2018-12-02T17:44:56.946Z,2.70
2018-12-02T17:47:28.135Z,4.57
2018-12-02T17:49:58.431Z,6.20
2018-12-02T17:52:29.931Z,4.60
2018-12-02T17:54:59.963Z,3.10
2018-12-02T17:57:30.764Z,2.63
2018-12-02T18:00:01.932Z,3.23
2018-12-02T18:02:32.130Z,2.83
2018-12-02T18:05:02.413Z,3.13
2018-12-02T18:07:33.129Z,2.60
2018-12-02T18:10:03.237Z,2.63
2018-12-02T18:12:33.869Z,2.77
2018-12-02T18:15:04.403Z,2.57
2018-12-02T18:17:34.625Z,2.70
2018-12-02T18:20:05.987Z,2.57
2018-12-02T18:22:36.196Z,2.77
2018-12-02T18:25:08.661Z,2.60
2018-12-02T18:27:39.241Z,3.37
2018-12-02T18:30:17.679Z,3.10
2018-12-02T18:32:48.993Z,3.10
2018-12-02T18:35:38.681Z,3.30
2018-12-02T18:38:12.315Z,3.77
2018-12-02T18:40:45.509Z,5.13
2018-12-02T18:43:15.588Z,6.80
2018-12-02T18:45:46.302Z,6.00
2018-12-02T18:48:17.669Z,4.77
2018-12-02T18:50:48.782Z,4.00
2018-12-02T18:53:19.706Z,4.33
2018-12-02T18:55:50.117Z,4.20
2018-12-02T18:58:21.814Z,5.63
2018-12-02T19:00:52.245Z,3.50
2018-12-02T19:03:24.246Z,3.73
2018-12-02T19:05:54.773Z,3.70
2018-12-02T19:08:25.218Z,4.30
2018-12-02T19:10:57.765Z,4.37
2018-12-02T19:13:28.207Z,4.27
2018-12-02T19:15:58.387Z,3.93
2018-12-02T19:18:28.324Z,4.20
2018-12-02T19:21:00.521Z,4.87
2018-12-02T19:23:32.590Z,4.03
2018-12-02T19:26:03.994Z,4.33
2018-12-02T19:28:34.616Z,4.70
2018-12-02T19:31:04.830Z,4.77
2018-12-02T19:33:35.334Z,6.53
2018-12-02T19:36:11.838Z,7.53
2018-12-02T19:38:42.194Z,6.00
2018-12-02T19:41:12.666Z,6.13
2018-12-02T19:43:44.667Z,6.13
2018-12-02T19:46:14.178Z,7.07
2018-12-02T19:48:44.209Z,5.63
2018-12-02T19:51:14.332Z,6.20
2018-12-02T19:53:45.153Z,6.73
2018-12-02T19:56:16.725Z,7.50
2018-12-02T19:58:47.063Z,6.63
2018-12-02T20:01:17.567Z,6.20
2018-12-02T20:03:48.099Z,6.47
2018-12-02T20:06:19.253Z,6.27
2018-12-02T20:08:50.515Z,7.40
2018-12-02T20:11:21.063Z,8.20
2018-12-02T20:13:51.935Z,7.67
2018-12-02T20:16:22.097Z,8.53
2018-12-02T20:18:52.347Z,6.87
2018-12-02T20:21:23.890Z,7.37
2018-12-02T20:24:00.021Z,8.50
2018-12-02T20:26:31.172Z,5.83
2018-12-02T20:29:02.037Z,6.30
2018-12-02T20:31:32.271Z,5.50
2018-12-02T20:34:02.644Z,5.97
2018-12-02T20:36:32.890Z,8.37
2018-12-02T20:39:04.241Z,5.70
2018-12-02T20:41:35.195Z,6.57
2018-12-02T20:44:06.222Z,6.00
2018-12-02T20:46:37.376Z,5.70
2018-12-02T20:49:07.786Z,5.43
2018-12-02T20:51:38.215Z,4.70
2018-12-02T20:54:08.458Z,5.10
2018-12-02T20:56:38.742Z,5.00
2018-12-02T20:59:09.360Z,4.83
2018-12-02T21:01:39.540Z,5.10
2018-12-02T21:04:11.713Z,5.20
2018-12-02T21:06:42.588Z,4.40
2018-12-02T21:09:12.791Z,4.83
2018-12-02T21:11:43.616Z,4.63
2018-12-02T21:14:14.601Z,4.70
2018-12-02T21:16:45.003Z,4.90
2018-12-02T21:19:15.057Z,4.70
2018-12-02T21:21:48.530Z,4.73
2018-12-02T21:24:18.905Z,4.30
2018-12-02T21:26:49.768Z,4.97
2018-12-02T21:29:20.085Z,5.07
2018-12-02T21:31:51.166Z,4.70
2018-12-02T21:34:21.482Z,4.90
2018-12-02T21:36:54.189Z,4.40
2018-12-02T21:39:24.782Z,4.10
2018-12-02T21:41:55.620Z,3.80
2018-12-02T21:44:26.515Z,3.40
2018-12-02T21:46:57.760Z,3.70
2018-12-02T21:49:28.262Z,3.10
2018-12-02T21:51:59.091Z,3.13
2018-12-02T21:54:29.467Z,3.00
2018-12-02T21:57:00.311Z,3.07
2018-12-02T21:59:30.640Z,2.50
2018-12-02T22:02:01.625Z,2.50
2018-12-02T22:04:32.010Z,2.70
2018-12-02T22:07:02.840Z,2.73
2018-12-02T22:09:33.616Z,2.50
2018-12-02T22:12:04.563Z,2.90
2018-12-02T22:14:35.618Z,2.40
2018-12-02T22:17:06.568Z,2.50
2018-12-02T22:19:37.241Z,2.77
2018-12-02T22:22:08.292Z,3.07
2018-12-02T22:24:38.678Z,2.83
2018-12-02T22:27:10.684Z,3.00
2018-12-02T22:29:41.249Z,2.90
2018-12-02T22:32:12.236Z,3.00
2018-12-02T22:34:42.556Z,2.67
2018-12-02T22:37:13.706Z,2.77
2018-12-02T22:39:43.784Z,2.93
2018-12-02T22:42:14.787Z,2.77
2018-12-02T22:44:48.633Z,3.33
2018-12-02T22:47:32.136Z,3.40
2018-12-02T22:50:03.137Z,3.07
2018-12-02T22:52:33.428Z,2.90
2018-12-02T22:55:03.736Z,3.77
2018-12-02T22:57:34.539Z,2.57
2018-12-02T23:00:17.280Z,2.97
2018-12-02T23:02:58.873Z,3.13
2018-12-02T23:05:29.792Z,3.20
2018-12-02T23:08:00.355Z,3.17
2018-12-02T23:10:31.884Z,3.90
2018-12-02T23:13:02.072Z,2.90
2018-12-02T23:15:32.488Z,3.43
2018-12-02T23:18:02.877Z,3.00
2018-12-02T23:20:33.809Z,3.37
2018-12-02T23:23:04.698Z,3.33
2018-12-02T23:25:35.594Z,2.97
2018-12-02T23:28:06.428Z,3.20
2018-12-02T23:30:36.830Z,2.87
2018-12-02T23:33:07.662Z,3.17
2018-12-02T23:35:38.120Z,3.00
2018-12-02T23:38:09.038Z,2.67
2018-12-02T23:40:40.082Z,2.37
2018-12-02T23:43:10.490Z,2.87
2018-12-02T23:45:41.596Z,2.83
2018-12-02T23:48:12.172Z,2.63
2018-12-02T23:50:42.537Z,2.60
2018-12-02T23:53:12.871Z,2.80
2018-12-02T23:55:43.150Z,3.07
2018-12-02T23:58:13.384Z,2.57
